Time,TemperatureF,DewpointF,PressureIn,WindDirection,WindDirectionDegrees,WindSpeedMPH,WindSpeedGustMPH,Humidity,HourlyPrecipIn,Conditions,Clouds,dailyrainin,SolarRadiationWatts/m^2,SoftwareType,DateUTC
2013-02-01 17:03:00,29.6,10.3,30.37,NNW,342,4.0,12.0,44,0.00,,,0.00,16,Wunderground v.1.15,2013-02-01 22:03:00,
2013-02-01 17:05:00,29.5,10.2,30.37,North,350,4.0,12.0,44,0.00,,,0.00,16,Wunderground v.1.15,2013-02-01 22:05:00,
2013-02-01 17:10:00,29.4,9.6,30.37,North,355,4.0,12.0,43,0.00,,,0.00,14,Wunderground v.1.15,2013-02-01 22:10:00,
2013-02-01 17:15:00,29.3,9.5,30.37,North,5,3.0,3.0,43,0.00,,,0.00,14,Wunderground v.1.15,2013-02-01 22:15:00,
2013-02-01 17:25:00,29.1,9.4,30.37,NNW,346,3.0,3.0,43,0.00,,,0.00,12,Wunderground v.1.15,2013-02-01 22:25:00,
2013-02-01 17:30:00,29.0,9.8,30.37,North,360,2.0,9.0,44,0.00,,,0.00,11,Wunderground v.1.15,2013-02-01 22:30:00,
2013-02-01 17:40:00,28.8,9.6,30.37,North,360,2.0,2.0,44,0.00,,,0.00,9,Wunderground v.1.15,2013-02-01 22:40:00,
2013-02-01 17:45:00,28.8,9.1,30.37,North,349,2.0,2.0,43,0.00,,,0.00,7,Wunderground v.1.15,2013-02-01 22:45:00,
2013-02-01 17:50:00,28.7,9.5,30.37,North,349,1.0,2.0,44,0.00,,,0.00,7,Wunderground v.1.15,2013-02-01 22:50:00,
2013-02-01 17:55:00,28.6,9.4,30.37,North,349,0.0,0.0,44,0.00,,,0.00,5,Wunderground v.1.15,2013-02-01 22:55:00,
2013-02-01 18:00:00,28.5,9.3,30.37,North,349,0.0,0.0,44,0.00,,,0.00,0,Wunderground v.1.15,2013-02-01 23:00:00,
2013-02-01 18:10:00,28.1,9.5,30.37,North,349,0.0,0.0,45,0.00,,,0.00,0,Wunderground v.1.15,2013-02-01 23:10:00,
2013-02-01 18:15:00,28.0,9.4,30.37,North,349,0.0,0.0,45,0.00,,,0.00,0,Wunderground v.1.15,2013-02-01 23:15:00,
2013-02-01 18:20:00,27.9,10.2,30.38,North,349,0.0,0.0,47,0.00,,,0.00,0,Wunderground v.1.15,2013-02-01 23:20:00,
2013-02-01 18:25:00,27.7,9.6,30.38,North,349,0.0,0.0,46,0.00,,,0.00,0,Wunderground v.1.15,2013-02-01 23:25:00,
2013-02-01 18:30:00,27.6,10.0,30.38,North,349,0.0,0.0,47,0.00,,,0.00,0,Wunderground v.1.15,2013-02-01 23:30:00,
2013-02-01 18:35:00,27.4,9.8,30.38,North,349,0.0,0.0,47,0.00,,,0.00,0,Wunderground v.1.15,2013-02-01 23:35:00,
2013-02-01 18:45:00,27.2,10.1,30.38,North,349,0.0,0.0,48,0.00,,,0.00,0,Wunderground v.1.15,2013-02-01 23:45:00,
2013-02-01 18:50:00,26.9,11.2,30.38,North,349,0.0,0.0,51,0.00,,,0.00,0,Wunderground v.1.15,2013-02-01 23:50:00,
2013-02-01 18:55:00,26.6,10.9,30.39,North,349,0.0,0.0,51,0.00,,,0.00,0,Wunderground v.1.15,2013-02-01 23:55:00,
2013-02-01 19:00:00,26.4,11.1,30.39,North,349,0.0,0.0,52,0.00,,,0.00,0,Wunderground v.1.15,2013-02-02 00:00:00,
2013-02-01 19:05:00,26.3,11.0,30.39,North,349,0.0,0.0,52,0.00,,,0.00,0,Wunderground v.1.15,2013-02-02 00:05:00,
2013-02-01 19:15:00,26.0,11.2,30.39,North,349,0.0,0.0,53,0.00,,,0.00,0,Wunderground v.1.15,2013-02-02 00:15:00,
2013-02-01 19:20:00,25.9,10.7,30.39,North,349,0.0,0.0,52,0.00,,,0.00,0,Wunderground v.1.15,2013-02-02 00:20:00,
2013-02-01 19:25:00,25.8,11.4,30.39,North,349,0.0,0.0,54,0.00,,,0.00,0,Wunderground v.1.15,2013-02-02 00:25:00,
2013-02-01 19:30:00,25.5,10.7,30.39,North,349,0.0,0.0,53,0.00,,,0.00,0,Wunderground v.1.15,2013-02-02 00:30:00,
2013-02-01 19:35:00,25.2,10.4,30.39,North,349,0.0,0.0,53,0.00,,,0.00,0,Wunderground v.1.15,2013-02-02 00:35:00,
2013-02-01 19:40:00,25.1,9.9,30.39,North,349,0.0,0.0,52,0.00,,,0.00,0,Wunderground v.1.15,2013-02-02 00:40:00,
2013-02-01 19:45:00,25.0,9.8,30.39,North,349,0.0,0.0,52,0.00,,,0.00,0,Wunderground v.1.15,2013-02-02 00:45:00,
2013-02-01 19:55:00,24.9,11.0,30.39,North,349,0.0,0.0,55,0.00,,,0.00,0,Wunderground v.1.15,2013-02-02 00:55:00,
2013-02-01 20:00:00,24.7,10.0,30.39,North,349,0.0,0.0,53,0.00,,,0.00,0,Wunderground v.1.15,2013-02-02 01:00:00,
2013-02-01 20:05:00,24.4,10.5,30.39,North,349,0.0,0.0,55,0.00,,,0.00,0,Wunderground v.1.15,2013-02-02 01:05:00,
2013-02-01 20:15:00,24.4,11.7,30.39,North,349,0.0,0.0,58,0.00,,,0.00,0,Wunderground v.1.15,2013-02-02 01:15:00,
2013-02-01 20:20:00,24.4,10.9,30.39,North,349,0.0,0.0,56,0.00,,,0.00,0,Wunderground v.1.15,2013-02-02 01:20:00,
2013-02-01 20:30:00,24.0,11.3,30.40,North,349,0.0,0.0,58,0.00,,,0.00,0,Wunderground v.1.15,2013-02-02 01:30:00,
2013-02-01 20:35:00,23.8,10.8,30.39,North,349,0.0,0.0,57,0.00,,,0.00,0,Wunderground v.1.15,2013-02-02 01:35:00,
2013-02-01 20:40:00,23.7,12.2,30.39,North,349,0.0,0.0,61,0.00,,,0.00,0,Wunderground v.1.15,2013-02-02 01:40:00,
2013-02-01 20:50:00,23.4,13.4,30.39,North,349,0.0,0.0,65,0.00,,,0.00,0,Wunderground v.1.15,2013-02-02 01:50:00,
2013-02-01 20:55:00,23.1,12.7,30.39,North,349,0.0,0.0,64,0.00,,,0.00,0,Wunderground v.1.15,2013-02-02 01:55:00,
2013-02-01 21:00:00,22.9,12.5,30.39,North,349,0.0,0.0,64,0.00,,,0.00,0,Wunderground v.1.15,2013-02-02 02:00:00,
2013-02-01 21:05:00,22.8,13.1,30.39,North,349,0.0,0.0,66,0.00,,,0.00,0,Wunderground v.1.15,2013-02-02 02:05:00,
2013-02-01 21:15:00,22.2,12.6,30.39,North,349,0.0,0.0,66,0.00,,,0.00,0,Wunderground v.1.15,2013-02-02 02:15:00,
2013-02-01 21:20:00,21.9,11.9,30.39,North,349,0.0,0.0,65,0.00,,,0.00,0,Wunderground v.1.15,2013-02-02 02:20:00,
2013-02-01 21:25:00,21.8,11.1,30.39,North,349,0.0,0.0,63,0.00,,,0.00,0,Wunderground v.1.15,2013-02-02 02:25:00,
2013-02-01 21:30:00,21.8,12.2,30.39,North,349,0.0,0.0,66,0.00,,,0.00,0,Wunderground v.1.15,2013-02-02 02:30:00,
2013-02-01 21:35:00,21.8,12.9,30.39,North,349,0.0,0.0,68,0.00,,,0.00,0,Wunderground v.1.15,2013-02-02 02:35:00,
2013-02-01 21:40:00,21.7,13.4,30.39,North,349,0.0,0.0,70,0.00,,,0.00,0,Wunderground v.1.15,2013-02-02 02:40:00,
2013-02-01 21:45:00,21.5,12.6,30.39,North,349,0.0,0.0,68,0.00,,,0.00,0,Wunderground v.1.15,2013-02-02 02:45:00,
2013-02-01 21:55:00,21.2,12.3,30.39,North,349,0.0,0.0,68,0.00,,,0.00,0,Wunderground v.1.15,2013-02-02 02:55:00,
2013-02-01 22:00:00,21.1,12.2,30.40,North,349,0.0,0.0,68,0.00,,,0.00,0,Wunderground v.1.15,2013-02-02 03:00:00,
2013-02-01 22:05:00,21.2,12.3,30.40,North,349,0.0,0.0,68,0.00,,,0.00,0,Wunderground v.1.15,2013-02-02 03:05:00,
2013-02-01 22:15:00,21.2,12.9,30.40,North,349,0.0,0.0,70,0.00,,,0.00,0,Wunderground v.1.15,2013-02-02 03:15:00,
2013-02-01 22:20:00,21.1,13.2,30.39,North,349,0.0,0.0,71,0.00,,,0.00,0,Wunderground v.1.15,2013-02-02 03:20:00,
2013-02-01 22:25:00,21.0,14.0,30.40,North,349,0.0,0.0,74,0.00,,,0.00,0,Wunderground v.1.15,2013-02-02 03:25:00,
2013-02-01 22:30:00,20.9,14.2,30.40,North,349,0.0,0.0,75,0.00,,,0.00,0,Wunderground v.1.15,2013-02-02 03:30:00,
2013-02-01 22:35:00,20.9,13.9,30.40,North,349,0.0,0.0,74,0.00,,,0.00,0,Wunderground v.1.15,2013-02-02 03:35:00,
2013-02-01 22:40:00,20.7,13.4,30.41,North,349,0.0,0.0,73,0.00,,,0.00,0,Wunderground v.1.15,2013-02-02 03:40:00,
2013-02-01 22:50:00,20.7,12.8,30.41,North,349,0.0,0.0,71,0.00,,,0.00,0,Wunderground v.1.15,2013-02-02 03:50:00,
2013-02-01 22:55:00,20.7,13.4,30.40,North,349,0.0,0.0,73,0.00,,,0.00,0,Wunderground v.1.15,2013-02-02 03:55:00,
2013-02-01 23:00:00,20.7,13.4,30.41,North,349,0.0,0.0,73,0.00,,,0.00,0,Wunderground v.1.15,2013-02-02 04:00:00,
2013-02-01 23:05:00,20.7,14.0,30.41,North,349,0.0,0.0,75,0.00,,,0.00,0,Wunderground v.1.15,2013-02-02 04:05:00,
2013-02-01 23:15:00,20.4,13.7,30.41,North,349,0.0,0.0,75,0.00,,,0.00,0,Wunderground v.1.15,2013-02-02 04:15:00,
2013-02-01 23:25:00,20.2,13.5,30.40,North,349,0.0,0.0,75,0.00,,,0.00,0,Wunderground v.1.15,2013-02-02 04:25:00,
2013-02-01 23:30:00,20.0,13.6,30.41,North,349,0.0,0.0,76,0.00,,,0.00,0,Wunderground v.1.15,2013-02-02 04:30:00,
2013-02-01 23:35:00,19.7,13.7,30.40,North,349,0.0,0.0,77,0.00,,,0.00,0,Wunderground v.1.15,2013-02-02 04:35:00,
2013-02-01 23:40:00,19.7,14.0,30.41,North,349,0.0,0.0,78,0.00,,,0.00,0,Wunderground v.1.15,2013-02-02 04:40:00,
2013-02-01 23:50:00,19.5,13.8,30.41,North,349,0.0,0.0,78,0.00,,,0.00,0,Wunderground v.1.15,2013-02-02 04:50:00,
2013-02-01 23:55:00,19.4,13.7,30.41,North,349,0.0,0.0,78,0.00,,,0.00,0,Wunderground v.1.15,2013-02-02 04:55:00,